createdAt,value
2022-09-02T00:01:01.020Z,15.70
2022-09-02T00:06:05.794Z,15.55
2022-09-02T00:11:13.218Z,15.58
2022-09-02T00:16:17.386Z,15.58
2022-09-02T00:21:22.663Z,15.47
2022-09-02T00:26:26.003Z,15.46
2022-09-02T00:31:30.051Z,15.47
2022-09-02T00:36:35.377Z,15.41
2022-09-02T00:41:40.884Z,15.35
2022-09-02T00:46:43.993Z,15.24
2022-09-02T00:51:52.429Z,15.22
2022-09-02T00:56:56.320Z,15.15
2022-09-02T01:01:59.304Z,15.11
2022-09-02T01:07:04.540Z,15.02
2022-09-02T01:12:07.987Z,14.95
2022-09-02T01:17:11.544Z,14.85
2022-09-02T01:22:20.928Z,14.84
2022-09-02T01:27:24.911Z,14.83
2022-09-02T01:32:29.692Z,14.74
2022-09-02T01:37:34.184Z,14.71
2022-09-02T01:42:37.500Z,14.59
2022-09-02T01:47:40.467Z,14.64
2022-09-02T01:52:45.115Z,14.62
2022-09-02T01:57:48.354Z,14.52
2022-09-02T02:02:51.585Z,14.52
2022-09-02T02:07:58.886Z,14.49
2022-09-02T02:13:02.808Z,14.49
2022-09-02T02:18:09.597Z,14.46
2022-09-02T02:23:14.224Z,14.44
2022-09-02T02:28:17.279Z,14.47
2022-09-02T02:33:21.029Z,14.38
2022-09-02T02:38:30.830Z,14.28
2022-09-02T02:43:34.239Z,14.28
2022-09-02T02:48:38.131Z,14.26
2022-09-02T02:53:43.321Z,14.10
2022-09-02T02:58:47.281Z,14.07
2022-09-02T03:03:52.135Z,14.02
2022-09-02T03:08:59.722Z,13.97
2022-09-02T03:14:04.030Z,13.90
2022-09-02T03:19:08.922Z,13.93
2022-09-02T03:24:13.828Z,13.88
2022-09-02T03:29:16.852Z,13.84
2022-09-02T03:34:20.661Z,13.80
2022-09-02T03:39:25.717Z,13.79
2022-09-02T03:44:28.790Z,13.80
2022-09-02T03:49:32.687Z,13.75
2022-09-02T03:54:38.081Z,13.72
2022-09-02T03:59:41.166Z,13.66
2022-09-02T04:04:44.254Z,13.65
2022-09-02T04:09:48.623Z,13.60
2022-09-02T04:14:51.933Z,13.60
2022-09-02T04:20:00.586Z,13.55
2022-09-02T04:25:06.544Z,13.51
2022-09-02T04:30:11.124Z,13.57
2022-09-02T04:35:16.949Z,13.57
2022-09-02T04:40:21.700Z,13.58
2022-09-02T04:45:29.207Z,13.59
2022-09-02T04:50:34.004Z,13.52
2022-09-02T04:55:40.455Z,13.52
2022-09-02T05:00:45.438Z,13.49
2022-09-02T05:06:00.032Z,13.50
2022-09-02T05:11:07.690Z,13.52
2022-09-02T05:16:11.235Z,13.57
2022-09-02T05:21:19.867Z,13.67
2022-09-02T05:26:25.935Z,13.73
2022-09-02T05:31:30.047Z,13.90
2022-09-02T05:36:33.657Z,13.89
2022-09-02T05:41:39.154Z,13.99
2022-09-02T05:46:48.610Z,14.11
2022-09-02T05:51:55.099Z,14.22
2022-09-02T05:57:08.721Z,14.29
2022-09-02T06:02:14.983Z,14.63
2022-09-02T06:07:20.196Z,14.90
2022-09-02T06:12:27.740Z,15.11
2022-09-02T06:17:31.063Z,15.31
2022-09-02T06:22:34.036Z,15.96
2022-09-02T06:27:40.066Z,16.62
2022-09-02T06:32:44.176Z,17.12
2022-09-02T06:37:53.835Z,18.30
2022-09-02T06:42:58.891Z,20.02
2022-09-02T06:48:08.385Z,24.58
2022-09-02T06:53:15.283Z,27.31
2022-09-02T06:58:19.959Z,29.05
2022-09-02T07:03:36.781Z,27.51
2022-09-02T07:08:41.831Z,27.92
2022-09-02T07:13:46.504Z,27.03
2022-09-02T07:18:51.055Z,26.47
2022-09-02T07:23:54.906Z,27.75
2022-09-02T07:28:59.482Z,29.37
2022-09-02T07:34:04.375Z,29.35
2022-09-02T07:39:09.965Z,27.91
2022-09-02T07:44:15.111Z,27.62
2022-09-02T07:49:23.956Z,26.06
2022-09-02T07:54:28.639Z,26.12
2022-09-02T07:59:33.998Z,24.95
2022-09-02T08:04:38.577Z,21.83
2022-09-02T08:09:43.890Z,20.31
2022-09-02T08:14:48.242Z,19.52
2022-09-02T08:19:54.565Z,19.05
2022-09-02T08:24:57.560Z,18.54
2022-09-02T08:30:01.921Z,18.67
2022-09-02T08:35:05.384Z,18.74
2022-09-02T08:40:14.248Z,18.66
2022-09-02T08:45:28.822Z,19.03
2022-09-02T08:50:32.614Z,19.02
2022-09-02T08:55:44.588Z,19.52
2022-09-02T09:00:55.789Z,19.52
2022-09-02T09:06:14.338Z,19.30
2022-09-02T09:11:20.862Z,19.78
2022-09-02T09:16:36.302Z,19.69
2022-09-02T09:21:40.753Z,19.88
2022-09-02T09:26:45.181Z,19.96
2022-09-02T09:31:57.356Z,20.18
2022-09-02T09:37:00.305Z,20.43
2022-09-02T09:42:09.631Z,20.38
2022-09-02T09:47:19.425Z,20.41
2022-09-02T09:52:33.034Z,20.28
2022-09-02T09:57:37.523Z,20.24
2022-09-02T10:02:49.124Z,20.25
2022-09-02T10:08:15.559Z,20.61
2022-09-02T10:13:29.613Z,20.59
2022-09-02T10:18:41.247Z,20.29
2022-09-02T10:23:56.886Z,20.62
2022-09-02T10:29:32.538Z,20.66
2022-09-02T10:34:50.261Z,20.89
2022-09-02T10:40:10.650Z,20.94
2022-09-02T10:45:18.142Z,21.13
2022-09-02T10:50:29.518Z,20.97
2022-09-02T10:55:39.779Z,21.02
2022-09-02T11:00:49.169Z,21.38
2022-09-02T11:05:58.014Z,21.48
2022-09-02T11:11:08.176Z,21.59
2022-09-02T11:16:16.073Z,21.82
2022-09-02T11:21:35.404Z,21.97
2022-09-02T11:26:41.468Z,21.94
2022-09-02T11:31:49.024Z,22.19
2022-09-02T11:36:53.760Z,22.07
2022-09-02T11:42:11.840Z,22.21
2022-09-02T11:47:36.939Z,21.79
2022-09-02T11:52:58.056Z,22.22
2022-09-02T11:58:02.459Z,22.61
2022-09-02T12:03:40.283Z,22.50
2022-09-02T12:09:04.008Z,21.83
2022-09-02T12:14:10.005Z,22.14
2022-09-02T12:19:41.929Z,22.20
2022-09-02T12:24:53.130Z,22.43
2022-09-02T12:29:57.564Z,22.72
2022-09-02T12:35:10.972Z,22.91
2022-09-02T12:40:21.999Z,23.07
2022-09-02T12:45:29.216Z,23.04
2022-09-02T12:50:36.162Z,22.90
2022-09-02T12:55:41.985Z,22.73
2022-09-02T13:00:59.616Z,22.76
2022-09-02T13:06:06.102Z,22.78
2022-09-02T13:11:59.219Z,22.76
2022-09-02T13:17:37.462Z,22.38
2022-09-02T13:22:58.750Z,22.39
2022-09-02T13:28:50.334Z,22.46
2022-09-02T13:34:01.200Z,22.44
2022-09-02T13:39:16.636Z,22.79
2022-09-02T13:44:24.791Z,23.07
2022-09-02T13:49:37.587Z,23.29
2022-09-02T13:54:44.574Z,23.17
2022-09-02T13:59:51.440Z,23.52
2022-09-02T14:04:58.854Z,22.95
2022-09-02T14:10:04.161Z,22.98
2022-09-02T14:15:12.187Z,23.47
2022-09-02T14:20:21.126Z,23.59
2022-09-02T14:25:27.557Z,23.65
2022-09-02T14:30:35.617Z,23.48
2022-09-02T14:35:39.108Z,23.38
2022-09-02T14:40:44.722Z,22.94
2022-09-02T14:45:52.014Z,22.73
2022-09-02T14:51:02.681Z,23.09
2022-09-02T14:56:07.105Z,23.45
2022-09-02T15:01:12.623Z,23.49
2022-09-02T15:06:15.604Z,23.34
2022-09-02T15:11:21.208Z,23.24
2022-09-02T15:16:25.623Z,23.23
2022-09-02T15:21:30.469Z,23.10
2022-09-02T15:26:39.649Z,23.07
2022-09-02T15:31:49.216Z,22.53
2022-09-02T15:36:54.964Z,22.33
2022-09-02T15:41:58.702Z,22.28
2022-09-02T15:47:03.666Z,22.35
2022-09-02T15:52:10.809Z,22.34
2022-09-02T16:02:41.332Z,22.04
2022-09-02T16:08:15.824Z,22.14
2022-09-02T16:13:21.974Z,22.20
2022-09-02T16:19:05.130Z,22.07
2022-09-02T16:30:02.040Z,21.97
2022-09-02T16:35:05.753Z,22.04
2022-09-02T16:40:21.139Z,22.03
2022-09-02T16:45:29.456Z,21.86
2022-09-02T16:50:34.449Z,21.77
2022-09-02T16:55:57.793Z,21.68
2022-09-02T17:01:12.395Z,21.63
2022-09-02T17:06:21.241Z,21.57
2022-09-02T17:11:32.013Z,21.54
2022-09-02T17:16:37.138Z,21.39
2022-09-02T17:21:42.991Z,21.36
2022-09-02T17:26:50.488Z,21.27
2022-09-02T17:31:54.320Z,21.08
2022-09-02T17:36:57.377Z,21.03
2022-09-02T17:42:01.995Z,20.88
2022-09-02T17:47:08.250Z,20.86
2022-09-02T17:52:13.318Z,20.85
2022-09-02T17:57:43.004Z,20.66
2022-09-02T18:03:14.014Z,20.60
2022-09-02T18:08:30.317Z,20.52
2022-09-02T18:13:44.594Z,20.52
2022-09-02T18:18:57.354Z,20.41
2022-09-02T18:24:13.767Z,20.36
2022-09-02T18:29:33.872Z,20.25
2022-09-02T18:34:49.027Z,20.23
2022-09-02T18:40:08.873Z,20.10
2022-09-02T18:45:22.075Z,20.14
2022-09-02T18:50:50.841Z,20.09
2022-09-02T18:55:55.097Z,19.94
2022-09-02T19:01:06.223Z,19.91
2022-09-02T19:06:18.983Z,19.73
2022-09-02T19:11:23.259Z,19.76
2022-09-02T19:16:29.931Z,19.61
2022-09-02T19:21:37.279Z,19.52
2022-09-02T19:26:42.997Z,19.48
2022-09-02T19:31:49.055Z,19.37
2022-09-02T19:36:53.593Z,19.46
2022-09-02T19:41:57.052Z,19.28
2022-09-02T19:47:49.985Z,19.23
2022-09-02T19:52:25.483Z,19.25
2022-09-02T19:57:28.817Z,19.10
2022-09-02T20:02:33.406Z,19.01
2022-09-02T20:07:36.488Z,19.04
2022-09-02T20:12:39.637Z,18.87
2022-09-02T20:17:47.103Z,18.85
2022-09-02T20:22:54.674Z,18.76
2022-09-02T20:28:45.132Z,18.73
2022-09-02T20:39:51.163Z,18.62
2022-09-02T20:45:08.024Z,18.46
2022-09-02T20:50:38.849Z,18.45
2022-09-02T20:56:00.773Z,18.29
2022-09-02T21:01:26.722Z,18.28
2022-09-02T21:06:36.581Z,18.16
2022-09-02T21:11:47.849Z,18.11
2022-09-02T21:16:57.668Z,18.13
2022-09-02T21:22:09.194Z,18.07
2022-09-02T21:27:24.937Z,18.04
2022-09-02T21:32:35.190Z,18.01
2022-09-02T21:37:41.906Z,17.97
2022-09-02T21:42:59.491Z,17.90
2022-09-02T21:48:16.012Z,17.89
2022-09-02T21:53:30.790Z,17.91
2022-09-02T21:58:55.725Z,17.84
2022-09-02T22:04:11.073Z,17.88
2022-09-02T22:09:21.028Z,17.85
2022-09-02T22:14:31.123Z,17.82
2022-09-02T22:19:38.923Z,17.69
2022-09-02T22:24:43.893Z,17.73
2022-09-02T22:29:51.711Z,17.62
2022-09-02T22:35:07.331Z,17.61
2022-09-02T22:40:16.003Z,17.51
2022-09-02T22:45:40.829Z,17.47
2022-09-02T22:51:08.223Z,17.35
2022-09-02T22:56:13.680Z,17.34
2022-09-02T23:01:21.427Z,17.14
2022-09-02T23:06:28.100Z,17.01
2022-09-02T23:11:37.069Z,16.97
2022-09-02T23:17:01.280Z,16.93
2022-09-02T23:22:13.056Z,16.82
2022-09-02T23:27:26.954Z,16.78
2022-09-02T23:32:53.105Z,16.63
2022-09-02T23:38:17.820Z,16.57
2022-09-02T23:43:22.048Z,16.56
2022-09-02T23:48:41.883Z,16.45
2022-09-02T23:54:12.017Z,16.46
2022-09-02T23:59:33.907Z,16.40
